createdAt,value
2018-11-06T00:02:59.493Z,9.47
2018-11-06T00:06:02.470Z,9.43
2018-11-06T00:09:07.502Z,9.45
2018-11-06T00:12:10.342Z,9.48
2018-11-06T00:15:13.306Z,9.44
2018-11-06T00:18:16.235Z,9.49
2018-11-06T00:21:19.188Z,9.47
2018-11-06T00:24:22.074Z,9.55
2018-11-06T00:27:25.092Z,9.52
2018-11-06T00:30:28.021Z,9.57
2018-11-06T00:33:30.953Z,9.51
2018-11-06T00:36:33.889Z,9.57
2018-11-06T00:39:36.833Z,9.53
2018-11-06T00:42:39.836Z,9.53
2018-11-06T00:45:42.787Z,9.55
2018-11-06T00:48:45.780Z,9.53
2018-11-06T00:51:48.674Z,9.55
2018-11-06T00:54:51.588Z,9.47
2018-11-06T00:57:54.509Z,9.43
2018-11-06T01:00:57.425Z,9.41
2018-11-06T01:04:06.037Z,9.41
2018-11-06T01:07:08.980Z,9.42
2018-11-06T01:10:12.042Z,9.54
2018-11-06T01:13:14.950Z,9.39
2018-11-06T01:16:17.916Z,9.38
2018-11-06T01:19:20.853Z,9.39
2018-11-06T01:22:24.128Z,9.36
2018-11-06T01:25:27.029Z,9.34
2018-11-06T01:28:29.953Z,9.35
2018-11-06T01:31:32.858Z,9.37
2018-11-06T01:34:35.797Z,9.25
2018-11-06T01:37:38.784Z,9.23
2018-11-06T01:40:41.720Z,9.11
2018-11-06T01:43:44.637Z,9.03
2018-11-06T01:46:48.017Z,9.10
2018-11-06T01:49:50.949Z,9.06
2018-11-06T01:52:53.861Z,9.08
2018-11-06T01:55:56.762Z,9.06
2018-11-06T01:58:59.684Z,9.00
2018-11-06T02:02:02.609Z,9.02
2018-11-06T02:05:07.220Z,8.98
2018-11-06T02:08:10.118Z,9.10
2018-11-06T02:11:13.079Z,8.95
2018-11-06T02:14:16.002Z,8.81
2018-11-06T02:17:18.929Z,8.83
2018-11-06T02:20:21.830Z,8.79
2018-11-06T02:23:24.730Z,8.77
2018-11-06T02:26:27.638Z,8.88
2018-11-06T02:29:30.651Z,8.84
2018-11-06T02:32:33.734Z,8.79
2018-11-06T02:35:36.596Z,8.83
2018-11-06T02:38:39.516Z,8.83
2018-11-06T02:41:42.459Z,8.79
2018-11-06T02:44:46.237Z,8.85
2018-11-06T02:47:49.132Z,8.85
2018-11-06T02:50:52.101Z,8.89
2018-11-06T02:53:54.982Z,8.93
2018-11-06T02:56:57.914Z,8.81
2018-11-06T03:00:00.836Z,8.78
2018-11-06T03:03:03.877Z,8.72
2018-11-06T03:06:06.946Z,8.68
2018-11-06T03:09:09.909Z,8.69
2018-11-06T03:12:12.866Z,8.70
2018-11-06T03:15:15.873Z,8.62
2018-11-06T03:18:18.782Z,8.71
2018-11-06T03:21:21.705Z,8.76
2018-11-06T03:24:24.694Z,8.62
2018-11-06T03:27:27.617Z,8.64
2018-11-06T03:30:30.788Z,8.60
2018-11-06T03:33:33.751Z,8.48
2018-11-06T03:36:36.673Z,8.65
2018-11-06T03:39:39.639Z,8.65
2018-11-06T03:42:42.994Z,8.66
2018-11-06T03:45:45.897Z,8.52
2018-11-06T03:48:48.813Z,8.46
2018-11-06T03:51:51.727Z,8.43
2018-11-06T03:54:54.665Z,8.40
2018-11-06T03:57:57.599Z,8.44
2018-11-06T04:01:00.509Z,8.59
2018-11-06T04:04:03.583Z,8.49
2018-11-06T04:07:06.578Z,8.56
2018-11-06T04:10:10.339Z,8.62
2018-11-06T04:13:13.265Z,8.91
2018-11-06T04:16:16.197Z,9.16
2018-11-06T04:19:19.100Z,9.36
2018-11-06T04:22:22.006Z,9.23
2018-11-06T04:25:24.896Z,9.08
2018-11-06T04:28:27.820Z,8.99
2018-11-06T04:31:30.734Z,8.93
2018-11-06T04:34:33.618Z,8.90
2018-11-06T04:37:36.897Z,8.88
2018-11-06T04:40:39.826Z,8.88
2018-11-06T04:43:42.736Z,8.84
2018-11-06T04:46:45.668Z,8.82
2018-11-06T04:49:48.639Z,8.81
2018-11-06T04:52:51.636Z,8.90
2018-11-06T04:55:54.526Z,8.89
2018-11-06T04:58:57.554Z,8.98
2018-11-06T05:02:00.589Z,9.01
2018-11-06T05:05:03.589Z,9.17
2018-11-06T05:08:06.545Z,9.18
2018-11-06T05:11:09.502Z,9.14
2018-11-06T05:14:12.538Z,9.18
2018-11-06T05:17:15.390Z,9.19
2018-11-06T05:20:18.325Z,9.20
2018-11-06T05:23:21.255Z,9.22
2018-11-06T05:26:24.193Z,9.25
2018-11-06T05:29:27.165Z,9.27
2018-11-06T05:32:30.070Z,9.28
2018-11-06T05:35:33.041Z,9.28
2018-11-06T05:38:35.986Z,9.24
2018-11-06T05:41:38.940Z,9.14
2018-11-06T05:44:41.853Z,9.14
2018-11-06T05:47:44.804Z,9.08
2018-11-06T05:50:47.793Z,9.11
2018-11-06T05:53:50.701Z,9.07
2018-11-06T05:56:53.605Z,9.07
2018-11-06T05:59:56.534Z,9.17
2018-11-06T06:02:59.501Z,9.14
2018-11-06T06:06:02.427Z,9.18
2018-11-06T06:09:06.938Z,9.14
2018-11-06T06:12:09.832Z,9.03
2018-11-06T06:15:12.796Z,9.06
2018-11-06T06:18:16.339Z,9.13
2018-11-06T06:21:19.275Z,9.07
2018-11-06T06:24:22.256Z,9.12
2018-11-06T06:27:25.306Z,9.06
2018-11-06T06:30:28.209Z,9.06
2018-11-06T06:33:31.154Z,9.07
2018-11-06T06:36:34.123Z,9.04
2018-11-06T06:39:37.125Z,9.11
2018-11-06T06:42:40.377Z,9.04
2018-11-06T06:45:43.339Z,9.08
2018-11-06T06:48:46.389Z,9.09
2018-11-06T06:51:49.338Z,9.06
2018-11-06T06:54:52.252Z,9.10
2018-11-06T06:57:55.185Z,9.12
2018-11-06T07:00:58.149Z,9.16
2018-11-06T07:04:01.084Z,9.14
2018-11-06T07:07:04.181Z,9.12
2018-11-06T07:10:09.521Z,9.17
2018-11-06T07:13:12.543Z,9.24
2018-11-06T07:16:15.467Z,9.22
2018-11-06T07:19:18.341Z,9.18
2018-11-06T07:22:21.231Z,9.20
2018-11-06T07:25:24.171Z,9.23
2018-11-06T07:28:27.055Z,9.27
2018-11-06T07:31:29.977Z,9.24
2018-11-06T07:34:32.893Z,9.27
2018-11-06T07:37:36.225Z,9.17
2018-11-06T07:40:39.227Z,9.15
2018-11-06T07:43:42.086Z,9.24
2018-11-06T07:46:45.069Z,9.27
2018-11-06T07:49:48.076Z,9.36
2018-11-06T07:52:50.967Z,9.35
2018-11-06T07:55:53.992Z,9.33
2018-11-06T07:58:56.884Z,9.68
2018-11-06T08:01:59.839Z,9.81
2018-11-06T08:05:02.780Z,9.62
2018-11-06T08:08:05.765Z,9.59
2018-11-06T08:11:08.705Z,9.58
2018-11-06T08:14:11.675Z,9.62
2018-11-06T08:17:14.637Z,9.63
2018-11-06T08:20:17.597Z,9.67
2018-11-06T08:23:20.506Z,9.68
2018-11-06T08:26:23.472Z,9.72
2018-11-06T08:29:27.139Z,9.81
2018-11-06T08:32:30.385Z,9.81
2018-11-06T08:35:33.009Z,9.86
2018-11-06T08:38:36.014Z,9.86
2018-11-06T08:41:39.146Z,9.87
2018-11-06T08:44:42.037Z,9.91
2018-11-06T08:47:45.481Z,9.95
2018-11-06T08:50:48.427Z,10.04
2018-11-06T08:53:51.408Z,10.25
2018-11-06T08:56:54.341Z,10.05
2018-11-06T08:59:57.311Z,10.00
2018-11-06T09:03:00.201Z,9.99
2018-11-06T09:06:03.142Z,10.02
2018-11-06T09:09:07.728Z,9.98
2018-11-06T09:12:10.669Z,9.98
2018-11-06T09:15:14.624Z,10.02
2018-11-06T09:18:17.697Z,10.03
2018-11-06T09:21:20.620Z,10.08
2018-11-06T09:24:23.593Z,10.09
2018-11-06T09:27:26.537Z,10.19
2018-11-06T09:30:29.497Z,10.21
2018-11-06T09:33:32.497Z,10.30
2018-11-06T09:36:35.445Z,10.35
2018-11-06T09:39:38.346Z,10.40
2018-11-06T09:42:41.289Z,10.40
2018-11-06T09:45:44.234Z,10.50
2018-11-06T09:48:47.183Z,10.49
2018-11-06T09:51:50.156Z,10.53
2018-11-06T09:54:53.099Z,10.55
2018-11-06T09:57:56.049Z,10.58
2018-11-06T10:00:58.947Z,10.58
2018-11-06T10:04:01.944Z,10.67
2018-11-06T10:07:05.913Z,10.75
2018-11-06T10:10:11.416Z,10.78
2018-11-06T10:13:14.381Z,10.85
2018-11-06T10:16:17.329Z,10.92
2018-11-06T10:19:20.296Z,10.96
2018-11-06T10:22:23.225Z,11.02
2018-11-06T10:25:26.189Z,11.06
2018-11-06T10:28:29.120Z,11.06
2018-11-06T10:31:32.513Z,11.05
2018-11-06T10:34:35.501Z,11.18
2018-11-06T10:37:38.508Z,11.25
2018-11-06T10:40:41.449Z,11.28
2018-11-06T10:43:44.486Z,11.38
2018-11-06T10:46:47.396Z,11.49
2018-11-06T10:49:50.338Z,11.52
2018-11-06T10:52:53.325Z,11.52
2018-11-06T10:55:56.274Z,11.63
2018-11-06T10:58:59.208Z,11.63
2018-11-06T11:02:07.712Z,11.69
2018-11-06T11:05:10.640Z,11.77
2018-11-06T11:08:13.596Z,11.68
2018-11-06T11:11:16.505Z,11.82
2018-11-06T11:14:19.418Z,11.87
2018-11-06T11:17:22.323Z,11.89
2018-11-06T11:20:25.297Z,11.87
2018-11-06T11:23:28.202Z,11.93
2018-11-06T11:26:31.137Z,11.95
2018-11-06T11:29:34.189Z,11.97
2018-11-06T11:32:37.173Z,12.13
2018-11-06T11:35:40.149Z,12.22
2018-11-06T11:38:43.093Z,12.29
2018-11-06T11:41:45.974Z,12.37
2018-11-06T11:44:48.872Z,12.40
2018-11-06T11:47:51.798Z,12.58
2018-11-06T11:50:54.754Z,12.64
2018-11-06T11:53:57.681Z,12.41
2018-11-06T11:57:00.601Z,12.75
2018-11-06T12:00:04.290Z,12.85
2018-11-06T12:03:07.656Z,12.93
2018-11-06T12:06:10.639Z,12.91
2018-11-06T12:09:13.533Z,12.84
2018-11-06T12:12:16.477Z,13.01
2018-11-06T12:15:19.392Z,13.04
2018-11-06T12:18:22.390Z,13.02
2018-11-06T12:21:25.268Z,12.72
2018-11-06T12:24:28.308Z,12.95
2018-11-06T12:27:31.175Z,12.98
2018-11-06T12:30:34.144Z,13.32
2018-11-06T12:33:37.093Z,13.21
2018-11-06T12:36:40.246Z,13.37
2018-11-06T12:39:43.064Z,13.48
2018-11-06T12:42:46.016Z,13.49
2018-11-06T12:45:48.946Z,13.30
2018-11-06T12:48:51.886Z,13.41
2018-11-06T12:51:54.786Z,13.42
2018-11-06T12:54:57.748Z,13.68
2018-11-06T12:58:00.716Z,13.65
2018-11-06T13:01:03.612Z,13.44
2018-11-06T13:04:06.590Z,13.51
2018-11-06T13:07:09.538Z,13.31
2018-11-06T13:10:13.345Z,13.80
2018-11-06T13:13:16.284Z,13.74
2018-11-06T13:16:19.269Z,13.44
2018-11-06T13:19:22.261Z,13.29
2018-11-06T13:22:25.276Z,13.63
2018-11-06T13:25:28.299Z,13.53
2018-11-06T13:28:32.122Z,13.66
2018-11-06T13:31:35.364Z,13.30
2018-11-06T13:34:38.536Z,13.56
2018-11-06T13:37:41.960Z,13.62
2018-11-06T13:40:45.198Z,13.61
2018-11-06T13:43:48.440Z,13.47
2018-11-06T13:46:51.208Z,13.70
2018-11-06T13:49:54.544Z,13.36
2018-11-06T13:52:57.496Z,13.39
2018-11-06T13:56:00.441Z,13.42
2018-11-06T13:59:03.909Z,13.55
2018-11-06T14:02:07.055Z,13.72
2018-11-06T14:05:10.452Z,13.63
2018-11-06T14:08:13.913Z,13.72
2018-11-06T14:11:17.363Z,13.63
2018-11-06T14:14:20.533Z,13.70
2018-11-06T14:17:23.874Z,13.58
2018-11-06T14:20:26.982Z,13.38
2018-11-06T14:23:29.913Z,13.48
2018-11-06T14:26:32.790Z,13.43
2018-11-06T14:29:35.674Z,13.57
2018-11-06T14:32:38.849Z,13.67
2018-11-06T14:35:41.913Z,13.54
2018-11-06T14:38:44.839Z,13.56
2018-11-06T14:41:47.745Z,13.64
2018-11-06T14:44:50.722Z,13.53
2018-11-06T14:47:53.697Z,13.50
2018-11-06T14:50:56.721Z,13.51
2018-11-06T14:53:59.672Z,13.44
2018-11-06T14:57:02.719Z,13.47
2018-11-06T15:00:08.588Z,13.48
2018-11-06T15:03:11.513Z,13.47
2018-11-06T15:06:14.488Z,13.26
2018-11-06T15:09:17.408Z,13.22
2018-11-06T15:12:20.361Z,13.13
2018-11-06T15:15:23.409Z,13.18
2018-11-06T15:18:26.359Z,13.16
2018-11-06T15:21:29.280Z,13.07
2018-11-06T15:24:32.404Z,13.45
2018-11-06T15:27:35.332Z,13.50
2018-11-06T15:30:38.362Z,13.06
2018-11-06T15:33:41.302Z,12.91
2018-11-06T15:36:44.245Z,12.80
2018-11-06T15:39:47.203Z,12.73
2018-11-06T15:42:50.133Z,12.64
2018-11-06T15:45:53.062Z,12.52
2018-11-06T15:48:56.039Z,12.43
2018-11-06T15:51:58.945Z,12.37
2018-11-06T15:55:01.928Z,12.33
2018-11-06T15:58:04.861Z,12.32
2018-11-06T16:01:07.901Z,12.19
2018-11-06T16:04:10.781Z,12.12
2018-11-06T16:07:13.689Z,11.99
2018-11-06T16:10:17.827Z,11.96
2018-11-06T16:13:20.770Z,11.93
2018-11-06T16:16:23.721Z,11.89
2018-11-06T16:19:26.674Z,11.87
2018-11-06T16:22:30.232Z,11.80
2018-11-06T16:25:33.548Z,11.76
2018-11-06T16:28:36.671Z,11.68
2018-11-06T16:31:39.886Z,11.60
2018-11-06T16:34:42.883Z,11.61
2018-11-06T16:37:46.404Z,11.53
2018-11-06T16:40:49.540Z,11.49
2018-11-06T16:43:52.696Z,11.46
2018-11-06T16:46:55.778Z,11.44
2018-11-06T16:49:58.874Z,11.44
2018-11-06T16:53:02.230Z,11.44
2018-11-06T16:56:06.062Z,11.43
2018-11-06T16:59:09.065Z,11.36
2018-11-06T17:02:12.095Z,11.29
2018-11-06T17:05:15.449Z,11.25
2018-11-06T17:08:18.406Z,11.32
2018-11-06T17:11:21.441Z,11.61
2018-11-06T17:14:24.463Z,11.27
2018-11-06T17:17:27.952Z,11.18
2018-11-06T17:20:30.906Z,11.11
2018-11-06T17:23:34.449Z,11.10
2018-11-06T17:26:37.986Z,11.14
2018-11-06T17:29:41.350Z,11.10
2018-11-06T17:32:44.511Z,11.05
2018-11-06T17:35:47.414Z,11.07
2018-11-06T17:38:50.454Z,11.05
2018-11-06T17:41:53.467Z,11.03
2018-11-06T17:44:56.512Z,11.04
2018-11-06T17:47:59.444Z,11.11
2018-11-06T17:51:02.461Z,11.02
2018-11-06T17:54:05.913Z,11.04
2018-11-06T17:57:08.965Z,11.07
2018-11-06T18:00:15.421Z,11.09
2018-11-06T18:03:18.376Z,11.05
2018-11-06T18:06:21.271Z,11.07
2018-11-06T18:09:24.186Z,11.12
2018-11-06T18:12:27.157Z,11.16
2018-11-06T18:15:30.109Z,11.24
2018-11-06T18:18:33.047Z,11.26
2018-11-06T18:21:35.981Z,11.27
2018-11-06T18:24:38.930Z,11.36
2018-11-06T18:27:41.870Z,11.27
2018-11-06T18:30:44.789Z,11.46
2018-11-06T18:33:47.646Z,11.42
2018-11-06T18:36:51.312Z,11.29
2018-11-06T18:39:54.252Z,11.36
2018-11-06T18:42:57.174Z,11.52
2018-11-06T18:46:00.192Z,12.20
2018-11-06T18:49:03.299Z,12.25
2018-11-06T18:52:06.354Z,12.31
2018-11-06T18:55:09.313Z,12.38
2018-11-06T18:58:12.447Z,12.62
2018-11-06T19:01:15.257Z,12.78
2018-11-06T19:04:18.679Z,12.78
2018-11-06T19:07:21.602Z,12.73
2018-11-06T19:10:24.718Z,12.86
2018-11-06T19:13:28.012Z,13.00
2018-11-06T19:16:30.905Z,12.67
2018-11-06T19:19:33.998Z,13.05
2018-11-06T19:22:37.292Z,12.96
2018-11-06T19:25:40.568Z,13.26
2018-11-06T19:28:43.757Z,13.02
2018-11-06T19:31:47.709Z,13.03
2018-11-06T19:34:50.814Z,13.02
2018-11-06T19:37:54.229Z,13.27
2018-11-06T19:40:57.277Z,13.18
2018-11-06T19:44:00.405Z,13.32
2018-11-06T19:47:03.581Z,13.02
2018-11-06T19:50:09.216Z,13.07
2018-11-06T19:53:12.300Z,12.96
2018-11-06T19:56:15.585Z,13.20
2018-11-06T19:59:18.746Z,13.29
2018-11-06T20:02:22.299Z,12.95
2018-11-06T20:05:25.545Z,12.90
2018-11-06T20:08:28.652Z,12.90
2018-11-06T20:11:31.585Z,12.98
2018-11-06T20:14:34.753Z,12.91
2018-11-06T20:17:38.319Z,13.00
2018-11-06T20:20:41.499Z,13.07
2018-11-06T20:23:44.484Z,12.89
2018-11-06T20:26:47.441Z,13.18
2018-11-06T20:29:50.532Z,13.00
2018-11-06T20:32:54.114Z,12.83
2018-11-06T20:35:57.366Z,12.77
2018-11-06T20:39:00.356Z,12.77
2018-11-06T20:42:03.752Z,12.71
2018-11-06T20:45:08.625Z,12.77
2018-11-06T20:48:11.501Z,12.66
2018-11-06T20:51:14.444Z,12.52
2018-11-06T20:54:17.685Z,12.52
2018-11-06T20:57:20.823Z,12.58
2018-11-06T21:00:30.670Z,12.55
2018-11-06T21:03:33.648Z,12.51
2018-11-06T21:06:36.597Z,12.50
2018-11-06T21:09:39.625Z,12.38
2018-11-06T21:12:42.964Z,12.30
2018-11-06T21:15:46.177Z,12.31
2018-11-06T21:18:49.180Z,12.40
2018-11-06T21:21:52.124Z,12.35
2018-11-06T21:24:55.222Z,12.27
2018-11-06T21:27:58.109Z,12.21
2018-11-06T21:31:01.044Z,12.23
2018-11-06T21:34:04.561Z,12.27
2018-11-06T21:37:07.494Z,12.12
2018-11-06T21:40:13.293Z,12.06
2018-11-06T21:43:16.317Z,12.16
2018-11-06T21:46:19.429Z,12.19
2018-11-06T21:49:22.548Z,12.08
2018-11-06T21:52:25.524Z,12.11
2018-11-06T21:55:28.501Z,12.13
2018-11-06T21:58:31.621Z,12.20
2018-11-06T22:01:34.805Z,12.24
2018-11-06T22:04:37.784Z,12.19
2018-11-06T22:07:41.105Z,12.11
2018-11-06T22:10:44.005Z,12.37
2018-11-06T22:13:47.074Z,12.38
2018-11-06T22:16:49.948Z,12.23
2018-11-06T22:19:52.846Z,12.19
2018-11-06T22:22:56.723Z,12.17
2018-11-06T22:25:59.891Z,12.03
2018-11-06T22:29:02.876Z,11.88
2018-11-06T22:32:05.841Z,11.87
2018-11-06T22:35:10.238Z,11.93
2018-11-06T22:38:13.303Z,11.93
2018-11-06T22:41:16.266Z,12.01
2018-11-06T22:44:19.165Z,11.99
2018-11-06T22:47:22.162Z,12.06
2018-11-06T22:50:25.070Z,12.04
2018-11-06T22:53:27.926Z,12.04
2018-11-06T22:56:30.870Z,12.06
2018-11-06T22:59:33.880Z,12.00
2018-11-06T23:02:36.874Z,11.91
2018-11-06T23:05:40.051Z,11.90
2018-11-06T23:08:42.947Z,11.85
2018-11-06T23:11:45.833Z,11.94
2018-11-06T23:14:48.717Z,12.00
2018-11-06T23:17:51.610Z,11.98
2018-11-06T23:20:54.650Z,11.99
2018-11-06T23:23:57.552Z,12.08
2018-11-06T23:27:00.473Z,12.15
2018-11-06T23:30:04.989Z,12.13
2018-11-06T23:33:07.989Z,12.04
2018-11-06T23:36:10.865Z,12.12
2018-11-06T23:39:13.752Z,12.21
2018-11-06T23:42:16.697Z,12.15
2018-11-06T23:45:19.610Z,12.12
2018-11-06T23:48:22.533Z,12.20
2018-11-06T23:51:25.434Z,12.14
2018-11-06T23:54:28.400Z,12.10
2018-11-06T23:57:31.301Z,12.11
